Time;durP1;ratioP1;P1;durP2;ratioP2;P2;SDS_P1;SDS_P2;PMS_P1;PMS_P2;Temp;Humidity;BMP_temperature;BMP_pressure;BME280_temperature;BME280_humidity;BME280_pressure;Samples;Min_cycle;Max_cycle;Signal;HPM_P1;HPM_P2
2022/08/02 00:00:59;;;;;;;7.05;1.95;;;14.70;96.70;;;;;;4265099;27;20493;-82
2022/08/02 00:02:59;;;;;;;6.13;1.52;;;14.70;96.70;;;;;;4265486;27;20043;-82
2022/08/02 00:05:00;;;;;;;4.88;2.45;;;14.70;96.70;;;;;;4246880;28;20053;-82
2022/08/02 00:07:01;;;;;;;6.25;1.77;;;14.70;96.70;;;;;;4247013;28;20047;-83
2022/08/02 00:09:03;;;;;;;7.70;1.92;;;14.70;96.70;;;;;;4247432;28;20582;-83
2022/08/02 00:11:04;;;;;;;5.18;2.33;;;14.70;96.90;;;;;;4247164;28;20465;-83
2022/08/02 00:13:04;;;;;;;6.47;2.13;;;14.70;96.90;;;;;;4265480;27;20110;-84
2022/08/02 00:15:07;;;;;;;5.70;2.88;;;14.60;97.00;;;;;;4247651;28;20504;-83
2022/08/02 00:17:08;;;;;;;9.07;2.55;;;14.60;97.40;;;;;;4248441;28;20051;-83
2022/08/02 00:19:09;;;;;;;3.78;2.13;;;14.50;97.30;;;;;;4273234;27;20039;-83
2022/08/02 00:21:10;;;;;;;3.90;2.08;;;14.40;97.40;;;;;;4269713;27;20047;-83
2022/08/02 00:23:10;;;;;;;6.20;2.03;;;14.40;97.50;;;;;;4266546;27;20089;-83
2022/08/02 00:25:12;;;;;;;7.47;2.33;;;14.40;97.70;;;;;;4230914;28;20067;-83
2022/08/02 00:27:13;;;;;;;8.25;2.40;;;14.30;97.90;;;;;;4230774;28;20043;-83
2022/08/02 00:29:14;;;;;;;9.63;3.30;;;14.30;98.00;;;;;;4235589;28;20477;-82
2022/08/02 00:31:14;;;;;;;12.10;2.33;;;14.30;98.10;;;;;;4243387;28;20077;-83
2022/08/02 00:33:15;;;;;;;8.57;1.70;;;14.30;98.20;;;;;;4244077;28;20054;-83
2022/08/02 00:35:16;;;;;;;5.78;2.00;;;14.20;98.20;;;;;;4261758;27;20049;-82
2022/08/02 00:37:16;;;;;;;10.73;2.33;;;14.20;98.40;;;;;;4262573;28;20083;-84
2022/08/02 00:39:17;;;;;;;5.47;2.03;;;14.20;98.40;;;;;;4263014;28;20054;-83
2022/08/02 00:41:20;;;;;;;4.68;1.92;;;14.20;98.50;;;;;;4262058;28;20071;-82
2022/08/02 00:43:20;;;;;;;4.43;1.80;;;14.10;98.60;;;;;;4242090;28;20515;-83
2022/08/02 00:45:21;;;;;;;7.93;1.92;;;14.10;98.70;;;;;;4240477;28;20056;-82
2022/08/02 00:47:22;;;;;;;10.80;2.10;;;14.10;98.70;;;;;;4238223;28;20042;-83
2022/08/02 00:49:22;;;;;;;7.30;2.30;;;14.00;98.70;;;;;;4246416;28;20534;-82
2022/08/02 00:51:23;;;;;;;8.13;2.80;;;14.00;98.80;;;;;;4264336;27;20150;-82
2022/08/02 00:53:24;;;;;;;7.40;2.60;;;13.90;98.80;;;;;;4246199;28;20104;-82
2022/08/02 00:55:25;;;;;;;8.80;2.13;;;13.90;98.90;;;;;;4246298;28;20085;-83
2022/08/02 00:57:26;;;;;;;7.82;2.10;;;13.90;99.00;;;;;;4245907;28;20134;-83
2022/08/02 00:59:27;;;;;;;9.07;1.90;;;13.80;99.00;;;;;;4246256;27;20047;-83
2022/08/02 01:01:40;;;;;;;6.95;2.85;;;13.80;99.10;;;;;;4244987;27;20154;-82
2022/08/02 01:03:41;;;;;;;6.50;1.85;;;13.80;99.10;;;;;;4232412;28;20104;-82
2022/08/02 01:05:43;;;;;;;12.23;3.40;;;13.70;99.10;;;;;;4250472;27;20498;-83
2022/08/02 01:07:43;;;;;;;7.55;2.03;;;13.70;99.10;;;;;;4250306;27;20514;-83
2022/08/02 01:09:44;;;;;;;9.77;2.40;;;13.80;99.20;;;;;;4232140;28;20044;-82
2022/08/02 01:11:45;;;;;;;10.18;2.10;;;13.70;99.20;;;;;;4232440;28;20066;-82
2022/08/02 01:13:46;;;;;;;9.85;3.30;;;13.60;99.30;;;;;;4232806;28;20051;-82
2022/08/02 01:15:59;;;;;;;4.30;1.90;;;13.60;99.30;;;;;;4250518;27;20051;-83
2022/08/02 01:18:14;;;;;;;9.18;2.20;;;13.60;99.50;;;;;;4264825;27;20039;-83
2022/08/02 01:21:04;;;;;;;10.98;2.53;;;13.60;99.70;;;;;;4248828;27;20076;-83
2022/08/02 01:23:32;;;;;;;7.05;2.42;;;13.60;99.90;;;;;;4267991;27;20046;-82
2022/08/02 01:25:58;;;;;;;8.05;2.63;;;13.60;99.90;;;;;;4259410;27;20123;-82
2022/08/02 01:28:35;;;;;;;5.55;2.35;;;13.50;99.90;;;;;;4234646;27;20055;-82
2022/08/02 01:30:40;;;;;;;10.60;2.38;;;13.50;99.90;;;;;;4248740;27;20039;-82
2022/08/02 01:32:51;;;;;;;10.02;2.47;;;13.50;99.60;;;;;;4267312;27;20121;-82
2022/08/02 01:34:55;;;;;;;7.30;2.67;;;13.40;99.90;;;;;;4267511;27;20487;-83
2022/08/02 01:37:16;;;;;;;9.93;2.20;;;13.40;99.80;;;;;;4267619;27;20121;-82
2022/08/02 01:39:23;;;;;;;6.07;1.80;;;13.40;99.90;;;;;;4231836;28;20051;-82
2022/08/02 01:41:26;;;;;;;5.97;2.58;;;13.40;99.90;;;;;;4250158;27;20088;-83
2022/08/02 01:43:30;;;;;;;5.97;2.00;;;13.40;99.90;;;;;;4249671;27;20054;-83
2022/08/02 01:45:34;;;;;;;4.03;2.00;;;13.40;99.90;;;;;;4231429;28;20418;-82
2022/08/02 01:47:38;;;;;;;5.30;1.75;;;13.30;99.90;;;;;;4233083;28;20519;-83
2022/08/02 01:49:40;;;;;;;6.82;1.92;;;13.30;99.90;;;;;;4231221;28;20043;-83
2022/08/02 01:54:02;;;;;;;10.52;2.33;;;13.20;99.90;;;;;;4247246;27;20055;-82
2022/08/02 01:56:06;;;;;;;6.75;1.75;;;13.20;99.90;;;;;;4249889;27;20046;-83
2022/08/02 01:58:08;;;;;;;8.43;2.28;;;13.20;99.90;;;;;;4248786;27;20100;-82
2022/08/02 02:00:10;;;;;;;8.57;1.92;;;13.20;99.90;;;;;;4248281;27;20122;-83
2022/08/02 02:02:14;;;;;;;7.70;2.20;;;13.10;99.90;;;;;;4249719;27;20046;-82
2022/08/02 02:04:16;;;;;;;6.07;1.98;;;13.10;99.90;;;;;;4246396;27;20155;-82
2022/08/02 02:06:17;;;;;;;12.73;4.10;;;13.10;99.90;;;;;;4233257;27;20039;-82
2022/08/02 02:08:27;;;;;;;8.10;2.38;;;13.10;99.90;;;;;;4213936;28;20044;-82
2022/08/02 02:10:30;;;;;;;9.90;2.10;;;13.10;99.90;;;;;;4230808;28;20089;-83
2022/08/02 02:12:35;;;;;;;6.78;2.13;;;13.10;99.90;;;;;;4231760;28;20050;-83
2022/08/02 02:14:37;;;;;;;7.80;2.13;;;13.10;99.90;;;;;;4231155;28;20091;-82
2022/08/02 02:16:41;;;;;;;8.52;2.70;;;13.00;99.90;;;;;;4232024;28;20039;-83
2022/08/02 02:18:43;;;;;;;7.30;2.17;;;13.00;99.90;;;;;;4232716;28;20050;-83
2022/08/02 02:20:45;;;;;;;4.80;2.22;;;13.00;99.90;;;;;;4231491;28;20055;-82
2022/08/02 02:22:47;;;;;;;4.38;1.98;;;13.00;99.90;;;;;;4240606;27;20487;-82
2022/08/02 02:24:48;;;;;;;7.22;2.55;;;12.90;99.90;;;;;;4249081;27;20506;-82
2022/08/02 02:26:50;;;;;;;7.18;2.30;;;12.90;99.90;;;;;;4249223;27;20082;-83
2022/08/02 02:28:52;;;;;;;5.97;3.03;;;12.90;99.90;;;;;;4248118;27;20043;-83
2022/08/02 02:31:00;;;;;;;10.55;2.42;;;12.90;99.90;;;;;;4242774;27;20046;-82
2022/08/02 02:33:03;;;;;;;10.35;3.53;;;12.90;99.90;;;;;;4231757;28;20052;-83
2022/08/02 02:35:05;;;;;;;8.10;3.83;;;12.90;99.90;;;;;;4231120;28;20410;-83
2022/08/02 02:37:13;;;;;;;8.70;2.58;;;12.80;99.90;;;;;;4232412;28;20122;-82
2022/08/02 02:39:15;;;;;;;10.27;2.80;;;12.80;99.90;;;;;;4232050;28;20101;-82
2022/08/02 02:41:20;;;;;;;7.93;3.25;;;12.80;99.90;;;;;;4237148;27;20043;-82
2022/08/02 02:43:23;;;;;;;6.10;3.05;;;12.80;99.90;;;;;;4247818;27;20047;-82
2022/08/02 02:45:25;;;;;;;8.80;3.92;;;12.80;99.90;;;;;;4247554;27;20054;-82
2022/08/02 02:47:29;;;;;;;11.23;2.70;;;12.70;99.90;;;;;;4247312;27;20058;-82
2022/08/02 02:49:34;;;;;;;18.33;3.20;;;12.70;99.90;;;;;;4248989;27;20051;-82
2022/08/02 02:51:38;;;;;;;9.10;2.90;;;12.80;99.90;;;;;;4230573;28;20051;-82
2022/08/02 02:53:40;;;;;;;9.27;3.05;;;12.70;99.90;;;;;;4248870;27;20047;-82
2022/08/02 02:55:42;;;;;;;11.30;4.13;;;12.70;99.90;;;;;;4247167;27;20522;-83
2022/08/02 02:57:43;;;;;;;7.70;3.28;;;12.80;99.90;;;;;;4249036;27;20051;-82
2022/08/02 02:59:45;;;;;;;6.45;2.92;;;12.70;99.90;;;;;;4248792;27;20047;-82
2022/08/02 03:01:46;;;;;;;8.95;3.45;;;12.80;99.90;;;;;;4248391;27;20046;-82
2022/08/02 03:03:48;;;;;;;5.82;2.97;;;12.80;99.90;;;;;;4249173;27;20449;-82
2022/08/02 03:05:49;;;;;;;8.75;2.88;;;12.80;99.90;;;;;;4248617;27;20063;-82
2022/08/02 03:07:50;;;;;;;9.15;3.88;;;12.70;99.90;;;;;;4247490;27;20186;-82
2022/08/02 03:09:50;;;;;;;9.63;3.80;;;12.70;99.90;;;;;;4247538;27;20402;-82
2022/08/02 03:11:56;;;;;;;9.40;3.50;;;12.70;99.90;;;;;;4248652;27;20046;-82
2022/08/02 03:13:58;;;;;;;6.82;2.67;;;12.60;99.90;;;;;;4248619;27;20047;-83
2022/08/02 03:15:59;;;;;;;7.50;3.30;;;12.70;99.90;;;;;;4248704;27;20078;-83
2022/08/02 03:18:00;;;;;;;7.00;2.55;;;12.70;99.90;;;;;;4246663;27;20055;-82
2022/08/02 03:20:01;;;;;;;10.50;3.45;;;12.70;99.90;;;;;;4248609;27;20046;-82
2022/08/02 03:22:02;;;;;;;10.48;2.80;;;12.70;99.90;;;;;;4248526;27;20082;-82
2022/08/02 03:24:03;;;;;;;12.65;3.40;;;12.70;99.90;;;;;;4246324;27;20043;-82
2022/08/02 03:26:03;;;;;;;11.13;3.95;;;12.70;99.90;;;;;;4248369;27;20574;-82
2022/08/02 03:28:04;;;;;;;9.85;2.65;;;12.70;99.90;;;;;;4229695;28;20582;-82
2022/08/02 03:30:07;;;;;;;6.57;3.10;;;12.70;99.90;;;;;;4231502;28;20043;-81
2022/08/02 03:32:08;;;;;;;13.18;2.70;;;12.70;99.90;;;;;;4231856;28;20050;-82
2022/08/02 03:34:09;;;;;;;10.95;3.05;;;12.60;99.90;;;;;;4231927;28;20075;-82
2022/08/02 03:36:12;;;;;;;11.60;3.35;;;12.60;99.90;;;;;;4231263;28;20475;-82
2022/08/02 03:38:17;;;;;;;8.43;3.30;;;12.60;99.90;;;;;;4230199;28;20183;-82
2022/08/02 03:40:18;;;;;;;8.77;3.45;;;12.60;99.90;;;;;;4231208;28;20047;-82
2022/08/02 03:42:21;;;;;;;7.47;2.65;;;12.60;99.90;;;;;;4230089;28;20102;-82
2022/08/02 03:44:24;;;;;;;10.35;3.20;;;12.60;99.90;;;;;;4229838;28;20551;-82
2022/08/02 03:46:25;;;;;;;10.75;3.67;;;12.60;99.90;;;;;;4243204;27;20058;-82
2022/08/02 03:48:27;;;;;;;10.45;3.10;;;12.60;99.90;;;;;;4248277;27;20045;-83
2022/08/02 03:50:28;;;;;;;10.25;3.10;;;12.60;99.90;;;;;;4248244;27;20062;-82
2022/08/02 03:52:31;;;;;;;11.13;3.83;;;12.60;99.90;;;;;;4248205;27;20043;-82
2022/08/02 03:54:32;;;;;;;10.25;3.40;;;12.70;99.90;;;;;;4247872;27;20127;-82
2022/08/02 03:56:33;;;;;;;7.30;3.33;;;12.70;99.90;;;;;;4229699;28;20052;-82
2022/08/02 03:58:34;;;;;;;7.22;2.83;;;12.70;99.90;;;;;;4248216;27;20051;-82
2022/08/02 04:00:35;;;;;;;11.80;3.65;;;12.70;99.90;;;;;;4248127;27;20152;-82
2022/08/02 04:02:36;;;;;;;9.38;3.03;;;12.70;99.90;;;;;;4247752;27;20035;-82
2022/08/02 04:04:36;;;;;;;6.90;2.97;;;12.70;99.90;;;;;;4248206;27;20380;-82
2022/08/02 04:06:37;;;;;;;9.55;2.83;;;12.70;99.90;;;;;;4230421;28;20104;-82
2022/08/02 04:08:38;;;;;;;7.75;2.90;;;12.70;99.90;;;;;;4248796;28;20042;-82
2022/08/02 04:12:57;;;;;;;;;;;12.70;99.90;;;;;;4247807;28;20050;-82
2022/08/02 04:14:59;;;;;;;10.57;2.90;;;12.70;99.90;;;;;;4248056;28;20367;-82
2022/08/02 04:17:11;;;;;;;12.15;3.50;;;12.70;99.90;;;;;;4232868;27;20070;-83
2022/08/02 04:19:47;;;;;;;8.10;3.08;;;12.70;99.90;;;;;;4230940;28;20380;-82
2022/08/02 04:21:51;;;;;;;10.40;3.15;;;12.70;99.90;;;;;;4230827;28;20172;-83
2022/08/02 04:23:53;;;;;;;10.68;3.08;;;12.70;99.90;;;;;;4230918;28;20377;-83
2022/08/02 04:25:55;;;;;;;9.80;3.40;;;12.70;99.90;;;;;;4230904;28;20119;-82
2022/08/02 04:27:57;;;;;;;7.47;3.03;;;12.70;99.90;;;;;;4230801;28;20046;-82
2022/08/02 04:29:59;;;;;;;10.23;2.95;;;12.70;99.90;;;;;;4230719;28;20043;-83
2022/08/02 04:32:01;;;;;;;14.30;3.53;;;12.70;99.90;;;;;;4229891;28;20051;-82
2022/08/02 04:34:03;;;;;;;12.32;3.80;;;12.70;99.90;;;;;;4230221;28;20487;-82
2022/08/02 04:36:05;;;;;;;8.32;3.22;;;12.70;99.90;;;;;;4234154;28;20434;-83
2022/08/02 04:38:07;;;;;;;11.50;3.70;;;12.70;99.90;;;;;;4234567;28;20403;-82
2022/08/02 04:40:12;;;;;;;9.65;3.15;;;12.80;99.90;;;;;;4242940;27;20079;-83
2022/08/02 04:42:23;;;;;;;12.07;3.60;;;12.80;99.90;;;;;;4251031;27;20047;-82
2022/08/02 04:44:24;;;;;;;17.02;3.60;;;12.70;99.90;;;;;;4249726;27;20591;-83
2022/08/02 04:46:25;;;;;;;8.63;3.20;;;12.80;99.90;;;;;;4251250;27;20138;-82
2022/08/02 04:48:26;;;;;;;8.73;3.20;;;12.80;99.90;;;;;;4231812;28;20040;-83
2022/08/02 04:50:27;;;;;;;6.75;3.30;;;12.80;99.90;;;;;;4251097;27;20039;-83
2022/08/02 04:52:27;;;;;;;8.60;2.70;;;12.80;99.90;;;;;;4251122;27;20043;-82
2022/08/02 04:54:28;;;;;;;9.95;3.22;;;12.80;99.90;;;;;;4250174;27;20043;-82
2022/08/02 04:56:30;;;;;;;15.65;3.97;;;12.90;99.90;;;;;;4249837;27;20043;-82
2022/08/02 04:58:30;;;;;;;13.02;3.78;;;12.90;99.90;;;;;;4249738;27;20043;-82
2022/08/02 05:00:31;;;;;;;9.88;3.70;;;12.90;99.90;;;;;;4240361;27;20073;-83
2022/08/02 05:02:32;;;;;;;11.23;3.20;;;12.90;99.90;;;;;;4233721;28;20503;-82
2022/08/02 05:04:33;;;;;;;8.02;3.38;;;13.00;99.90;;;;;;4232722;27;20075;-82
2022/08/02 05:06:33;;;;;;;14.52;3.53;;;13.00;99.90;;;;;;4215532;28;20133;-83
2022/08/02 05:08:34;;;;;;;9.73;3.13;;;13.10;99.90;;;;;;4232461;28;20055;-83
2022/08/02 05:10:35;;;;;;;7.88;3.30;;;13.10;99.90;;;;;;4233609;28;20039;-83
2022/08/02 05:12:38;;;;;;;7.43;3.30;;;13.20;99.90;;;;;;4232731;28;20531;-83
2022/08/02 05:14:39;;;;;;;9.55;3.08;;;13.20;99.90;;;;;;4215440;28;20056;-82
2022/08/02 05:16:39;;;;;;;16.02;3.58;;;13.30;99.90;;;;;;4233141;28;20526;-83
2022/08/02 05:18:40;;;;;;;6.72;2.75;;;13.30;99.90;;;;;;4232348;28;20057;-83
2022/08/02 05:20:41;;;;;;;12.75;3.20;;;13.40;99.90;;;;;;4215654;28;20056;-83
2022/08/02 05:22:42;;;;;;;7.43;3.10;;;13.50;99.90;;;;;;4233477;28;20043;-83
2022/08/02 05:24:43;;;;;;;6.57;2.92;;;13.50;99.90;;;;;;4233120;28;20119;-83
2022/08/02 05:26:43;;;;;;;10.35;3.03;;;13.60;99.90;;;;;;4233333;28;20039;-83
2022/08/02 05:28:44;;;;;;;12.63;3.42;;;13.60;99.90;;;;;;4236464;27;20093;-83
2022/08/02 05:30:44;;;;;;;11.23;2.42;;;13.70;99.90;;;;;;4249169;27;20047;-82
2022/08/02 05:32:52;;;;;;;7.20;2.50;;;13.80;99.90;;;;;;4250394;27;20122;-82
2022/08/02 05:34:53;;;;;;;9.35;2.85;;;13.90;99.90;;;;;;4233016;28;20399;-82
2022/08/02 05:36:54;;;;;;;12.60;3.58;;;14.00;99.90;;;;;;4215090;28;20158;-83
2022/08/02 05:38:55;;;;;;;12.00;3.38;;;14.10;99.90;;;;;;4233003;28;20123;-83
2022/08/02 05:40:55;;;;;;;6.75;2.70;;;14.20;99.90;;;;;;4233055;28;20047;-82
2022/08/02 05:42:56;;;;;;;7.30;2.33;;;14.20;99.90;;;;;;4233281;28;20050;-82
2022/08/02 05:44:57;;;;;;;4.65;2.40;;;14.30;99.90;;;;;;4231544;27;20056;-82
2022/08/02 05:46:57;;;;;;;7.70;2.33;;;14.40;99.90;;;;;;4231986;28;20059;-82
2022/08/02 05:49:00;;;;;;;7.90;2.50;;;14.40;99.90;;;;;;4233077;28;20041;-82
2022/08/02 05:51:09;;;;;;;6.70;2.55;;;14.40;99.90;;;;;;4232885;28;20090;-82
2022/08/02 05:53:30;;;;;;;8.90;2.85;;;14.50;99.90;;;;;;4244051;27;20051;-82
2022/08/02 05:55:34;;;;;;;6.15;2.60;;;14.60;99.90;;;;;;4234455;27;20050;-82
2022/08/02 05:57:52;;;;;;;6.70;1.98;;;14.60;99.90;;;;;;4248949;27;20123;-82
2022/08/02 06:00:14;;;;;;;8.32;2.70;;;14.70;99.90;;;;;;4236471;27;20035;-82
2022/08/02 06:02:29;;;;;;;6.15;2.45;;;14.80;99.90;;;;;;4231552;28;20100;-82
2022/08/02 06:04:57;;;;;;;7.22;2.10;;;14.90;99.90;;;;;;4232448;28;20403;-82
2022/08/02 06:07:05;;;;;;;6.47;1.90;;;15.00;99.90;;;;;;4233106;28;20430;-82
2022/08/02 06:09:09;;;;;;;11.18;3.22;;;15.10;99.90;;;;;;4232838;28;20051;-83
2022/08/02 06:11:14;;;;;;;6.78;2.00;;;15.30;99.90;;;;;;4233025;28;20132;-83
2022/08/02 06:13:18;;;;;;;9.82;2.28;;;15.40;99.90;;;;;;4232164;28;20139;-83
2022/08/02 06:15:20;;;;;;;6.13;1.98;;;15.50;99.90;;;;;;4231650;28;20059;-83
2022/08/02 06:17:21;;;;;;;10.27;2.95;;;15.60;99.90;;;;;;4232867;28;20047;-83
2022/08/02 06:19:22;;;;;;;9.85;1.77;;;15.70;99.90;;;;;;4241757;27;20103;-83
2022/08/02 06:21:25;;;;;;;9.13;2.13;;;15.90;99.90;;;;;;4248534;27;20126;-83
2022/08/02 06:23:27;;;;;;;5.63;2.20;;;16.00;99.90;;;;;;4248156;27;20076;-83
2022/08/02 06:25:29;;;;;;;4.93;1.92;;;16.10;99.90;;;;;;4248055;27;20051;-83
2022/08/02 06:27:31;;;;;;;8.93;2.17;;;16.20;99.90;;;;;;4239932;27;20081;-83
2022/08/02 06:29:33;;;;;;;6.00;2.03;;;16.30;99.90;;;;;;4231346;28;20138;-83
2022/08/02 06:31:35;;;;;;;14.20;2.50;;;16.40;99.90;;;;;;4230928;28;20086;-83
2022/08/02 06:33:37;;;;;;;6.35;1.92;;;16.50;99.80;;;;;;4230976;28;20427;-83
2022/08/02 06:36:02;;;;;;;6.10;1.70;;;16.60;99.60;;;;;;4231010;28;20126;-83
2022/08/02 06:38:04;;;;;;;3.75;1.65;;;16.70;99.40;;;;;;4230957;28;20416;-83
2022/08/02 06:40:20;;;;;;;8.35;1.75;;;16.80;99.30;;;;;;4232372;28;20544;-83
2022/08/02 06:42:29;;;;;;;8.35;2.10;;;16.90;98.80;;;;;;4231247;28;20050;-83
2022/08/02 06:44:30;;;;;;;8.65;1.80;;;16.90;99.00;;;;;;4251965;27;20370;-84
2022/08/02 06:46:32;;;;;;;7.63;1.73;;;17.00;98.90;;;;;;4266366;27;20152;-82
2022/08/02 06:48:34;;;;;;;7.32;2.33;;;17.00;98.80;;;;;;4247732;27;20043;-82
2022/08/02 06:50:40;;;;;;;8.43;1.83;;;17.10;98.70;;;;;;4266292;27;20047;-83
2022/08/02 06:52:42;;;;;;;11.48;1.75;;;17.10;98.60;;;;;;4266682;27;20043;-82
2022/08/02 06:54:42;;;;;;;3.80;1.45;;;17.20;98.50;;;;;;4248271;27;20043;-83
2022/08/02 06:56:43;;;;;;;5.43;1.83;;;17.30;98.30;;;;;;4240627;27;20104;-82
2022/08/02 06:58:44;;;;;;;5.70;1.30;;;17.30;98.10;;;;;;4230580;28;20035;-82
2022/08/02 07:00:45;;;;;;;4.90;1.50;;;17.40;98.10;;;;;;4249746;27;20115;-82
2022/08/02 07:02:48;;;;;;;4.30;1.55;;;17.60;97.80;;;;;;4250041;27;20115;-83
2022/08/02 07:04:49;;;;;;;8.90;1.65;;;17.70;97.70;;;;;;4235136;27;20054;-82
2022/08/02 07:06:50;;;;;;;3.88;1.50;;;17.80;97.30;;;;;;4247600;27;20039;-82
2022/08/02 07:08:53;;;;;;;3.70;1.20;;;17.90;97.20;;;;;;4266175;27;20410;-82
2022/08/02 07:10:57;;;;;;;6.40;1.70;;;18.00;96.80;;;;;;4247467;27;20054;-82
2022/08/02 07:12:57;;;;;;;4.13;1.40;;;18.10;96.50;;;;;;4265892;27;20486;-82
2022/08/02 07:14:59;;;;;;;3.08;1.10;;;18.20;96.10;;;;;;4265783;27;20035;-82
2022/08/02 07:17:00;;;;;;;8.55;1.58;;;18.30;95.80;;;;;;4247326;27;20079;-82
2022/08/02 07:19:02;;;;;;;4.28;1.67;;;18.40;95.80;;;;;;4266022;27;20562;-82
2022/08/02 07:21:06;;;;;;;5.28;1.73;;;18.40;95.40;;;;;;4247514;27;20043;-82
2022/08/02 07:23:08;;;;;;;5.10;1.02;;;18.50;95.30;;;;;;4247557;27;20118;-82
2022/08/02 07:25:11;;;;;;;6.68;1.23;;;18.50;95.00;;;;;;4265994;27;20046;-83
2022/08/02 07:27:12;;;;;;;3.45;1.15;;;18.50;95.00;;;;;;4265811;27;20039;-83
2022/08/02 07:29:13;;;;;;;3.40;1.50;;;18.60;94.90;;;;;;4247467;27;20046;-83
2022/08/02 07:31:14;;;;;;;3.97;1.42;;;18.80;94.50;;;;;;4263377;27;20123;-82
2022/08/02 07:33:15;;;;;;;5.63;1.90;;;18.90;94.00;;;;;;4249068;27;20118;-82
2022/08/02 07:35:16;;;;;;;2.95;1.20;;;19.00;93.90;;;;;;4231049;28;20046;-83
2022/08/02 07:37:17;;;;;;;5.07;1.77;;;19.10;93.40;;;;;;4248883;27;20483;-83
2022/08/02 07:39:18;;;;;;;8.50;1.00;;;19.20;93.10;;;;;;4230191;28;20048;-82
2022/08/02 07:41:19;;;;;;;4.95;1.23;;;19.30;92.80;;;;;;4230838;28;20510;-82
2022/08/02 07:43:19;;;;;;;3.80;1.15;;;19.40;92.50;;;;;;4249088;27;20034;-82
2022/08/02 07:45:21;;;;;;;3.65;0.95;;;19.50;92.40;;;;;;4248118;27;20051;-82
2022/08/02 07:47:22;;;;;;;5.28;0.95;;;19.60;92.20;;;;;;4230687;28;20051;-82
2022/08/02 07:49:22;;;;;;;3.45;0.90;;;19.70;91.70;;;;;;4248194;27;20043;-82
2022/08/02 07:51:23;;;;;;;4.70;0.80;;;19.80;91.40;;;;;;4248506;27;20045;-82
2022/08/02 07:53:24;;;;;;;6.93;1.00;;;19.90;91.20;;;;;;4230737;28;20063;-83
2022/08/02 07:55:25;;;;;;;4.38;1.05;;;20.00;91.00;;;;;;4230750;28;20055;-82
2022/08/02 07:57:30;;;;;;;5.40;1.10;;;20.10;90.50;;;;;;4248397;27;20047;-83
2022/08/02 07:59:31;;;;;;;4.78;2.08;;;20.20;90.00;;;;;;4229742;28;20082;-84
2022/08/02 08:01:32;;;;;;;5.45;0.93;;;20.30;89.90;;;;;;4262975;27;20042;-83
2022/08/02 08:03:32;;;;;;;2.28;0.88;;;20.40;89.10;;;;;;4215554;28;20181;-83
2022/08/02 08:05:33;;;;;;;3.47;0.77;;;20.50;88.10;;;;;;4248782;27;20118;-82
2022/08/02 08:07:34;;;;;;;4.38;1.35;;;20.50;86.70;;;;;;4248078;28;20130;-83
2022/08/02 08:09:42;;;;;;;2.63;0.82;;;20.80;86.60;;;;;;4247710;27;20510;-83
2022/08/02 08:11:43;;;;;;;3.40;0.93;;;20.90;85.60;;;;;;4213521;28;20120;-83
2022/08/02 08:13:44;;;;;;;3.65;0.75;;;21.00;85.00;;;;;;4230756;28;20419;-82
2022/08/02 08:15:44;;;;;;;4.97;1.27;;;21.10;83.30;;;;;;4229853;28;20126;-83
2022/08/02 08:17:45;;;;;;;4.55;0.98;;;21.20;82.20;;;;;;4229915;28;20466;-83
2022/08/02 08:19:46;;;;;;;4.47;0.50;;;21.30;81.70;;;;;;4248423;28;20043;-83
2022/08/02 08:21:47;;;;;;;5.45;0.55;;;21.40;80.70;;;;;;4248541;28;20448;-83
2022/08/02 08:23:47;;;;;;;2.65;0.88;;;21.50;80.00;;;;;;4248087;28;20036;-83
2022/08/02 08:25:48;;;;;;;4.05;0.90;;;21.70;79.80;;;;;;4230123;28;20047;-83
2022/08/02 08:27:52;;;;;;;2.33;0.52;;;21.80;79.40;;;;;;4231165;28;20167;-83
2022/08/02 08:29:53;;;;;;;2.63;0.60;;;21.90;78.40;;;;;;4248550;28;20046;-83
2022/08/02 08:31:53;;;;;;;2.47;0.52;;;21.90;77.60;;;;;;4246662;28;20126;-83
2022/08/02 08:33:55;;;;;;;3.22;0.77;;;21.90;77.30;;;;;;4264883;27;20047;-83
2022/08/02 08:35:56;;;;;;;8.82;2.60;;;21.90;76.90;;;;;;4265346;27;20050;-82
2022/08/02 08:37:57;;;;;;;3.78;0.80;;;22.00;76.60;;;;;;4266192;27;20047;-83
2022/08/02 08:39:57;;;;;;;1.45;0.77;;;22.00;76.00;;;;;;4232973;28;20052;-83
2022/08/02 08:42:00;;;;;;;4.45;1.48;;;22.10;75.80;;;;;;4230348;28;20526;-83
2022/08/02 08:44:00;;;;;;;2.53;0.70;;;22.30;75.70;;;;;;4229718;28;20043;-83
2022/08/02 08:46:01;;;;;;;3.35;0.60;;;22.50;74.60;;;;;;4247689;28;20387;-83
2022/08/02 08:48:14;;;;;;;1.60;0.70;;;22.70;73.90;;;;;;4248129;28;20032;-83
2022/08/02 08:50:20;;;;;;;3.00;0.63;;;22.70;71.00;;;;;;4247856;28;20475;-83
2022/08/02 08:52:25;;;;;;;3.08;0.70;;;22.70;71.50;;;;;;4248304;28;20757;-83
2022/08/02 08:54:29;;;;;;;4.15;0.65;;;22.80;71.90;;;;;;4238478;28;20055;-83
2022/08/02 08:56:33;;;;;;;0.68;0.68;;;22.90;70.70;;;;;;4247247;28;20078;-83
2022/08/02 08:58:34;;;;;;;2.40;0.70;;;22.90;67.10;;;;;;4265309;27;20057;-83
2022/08/02 09:00:35;;;;;;;1.27;0.40;;;22.90;67.90;;;;;;4265525;27;20122;-83
2022/08/02 09:02:36;;;;;;;1.65;0.60;;;22.80;66.90;;;;;;4265436;27;20078;-83
2022/08/02 09:04:37;;;;;;;1.92;0.63;;;22.90;67.30;;;;;;4246430;28;20047;-83
2022/08/02 09:06:38;;;;;;;4.78;0.60;;;23.10;66.20;;;;;;4263615;27;20038;-83
2022/08/02 09:08:39;;;;;;;2.75;0.40;;;23.10;65.70;;;;;;4247147;28;20522;-83
2022/08/02 09:10:43;;;;;;;3.33;0.60;;;23.10;64.90;;;;;;4247245;28;20126;-83
2022/08/02 09:12:43;;;;;;;3.50;0.57;;;23.20;64.50;;;;;;4265098;27;20125;-83
2022/08/02 09:14:45;;;;;;;3.75;0.70;;;23.30;63.90;;;;;;4230068;28;20403;-83
2022/08/02 09:16:46;;;;;;;1.08;0.60;;;23.30;63.70;;;;;;4265382;27;20055;-83
2022/08/02 09:18:47;;;;;;;2.47;0.80;;;23.30;63.20;;;;;;4229420;28;20044;-83
2022/08/02 09:20:56;;;;;;;2.95;0.75;;;23.40;62.60;;;;;;4265463;27;20081;-83
2022/08/02 09:23:08;;;;;;;1.38;0.70;;;23.40;61.20;;;;;;4267117;27;20090;-83
2022/08/02 09:25:14;;;;;;;4.28;0.70;;;23.50;61.50;;;;;;4267574;27;20086;-83
2022/08/02 09:27:18;;;;;;;1.25;0.60;;;23.50;62.30;;;;;;4268868;27;20118;-83
2022/08/02 09:29:22;;;;;;;1.30;0.47;;;23.70;62.40;;;;;;4270828;27;20046;-83
2022/08/02 09:31:23;;;;;;;2.50;0.63;;;24.00;62.40;;;;;;4278177;27;20079;-82
2022/08/02 09:33:25;;;;;;;4.35;0.63;;;24.10;62.70;;;;;;4285477;27;20086;-82
2022/08/02 09:35:38;;;;;;;3.08;0.75;;;24.20;62.20;;;;;;4267297;27;20088;-83
2022/08/02 09:37:39;;;;;;;2.35;0.80;;;24.50;61.40;;;;;;4249747;28;20047;-82
2022/08/02 09:39:44;;;;;;;3.10;0.90;;;24.40;61.70;;;;;;4247624;28;20073;-83
2022/08/02 09:41:46;;;;;;;1.35;0.70;;;24.50;60.90;;;;;;4267599;27;20050;-83
2022/08/02 09:43:47;;;;;;;6.75;1.45;;;24.50;61.60;;;;;;4267487;27;20049;-82
2022/08/02 09:45:47;;;;;;;6.68;1.13;;;24.50;61.70;;;;;;4268332;27;20047;-82
2022/08/02 09:47:48;;;;;;;1.77;1.10;;;24.50;61.80;;;;;;4272376;27;20046;-83
2022/08/02 09:49:49;;;;;;;3.00;1.42;;;24.50;61.30;;;;;;4267194;27;20039;-83
2022/08/02 09:51:53;;;;;;;2.35;0.80;;;24.40;61.80;;;;;;4231635;28;20104;-83
2022/08/02 09:53:58;;;;;;;1.88;0.82;;;24.40;62.00;;;;;;4248667;27;20408;-83
2022/08/02 09:55:59;;;;;;;3.03;0.60;;;24.40;61.10;;;;;;4267204;27;20046;-83
2022/08/02 09:58:17;;;;;;;2.03;1.05;;;24.30;62.60;;;;;;4267071;27;20604;-82
2022/08/02 10:00:18;;;;;;;2.33;1.00;;;24.30;62.30;;;;;;4259566;27;20043;-83
2022/08/02 10:02:19;;;;;;;1.15;0.80;;;24.30;63.10;;;;;;4249667;27;20049;-82
2022/08/02 10:04:23;;;;;;;3.30;0.80;;;24.40;63.00;;;;;;4231228;28;20123;-83
2022/08/02 10:06:26;;;;;;;2.40;0.90;;;24.50;63.40;;;;;;4249632;27;20031;-82
2022/08/02 10:08:31;;;;;;;2.42;0.80;;;24.70;63.80;;;;;;4250151;27;20047;-83
2022/08/02 10:10:32;;;;;;;5.45;0.95;;;24.90;63.50;;;;;;4249635;27;20054;-83
2022/08/02 10:12:33;;;;;;;4.65;1.13;;;24.90;63.40;;;;;;4249447;27;20467;-83
2022/08/02 10:14:36;;;;;;;5.18;1.45;;;25.00;63.10;;;;;;4231116;28;20043;-83
2022/08/02 10:16:40;;;;;;;5.07;1.20;;;25.10;63.10;;;;;;4242375;27;20130;-84
2022/08/02 10:18:41;;;;;;;5.68;0.93;;;25.10;63.30;;;;;;4266531;27;20047;-83
2022/08/02 10:20:43;;;;;;;3.58;1.00;;;25.10;63.40;;;;;;4266712;27;20048;-83
2022/08/02 10:22:46;;;;;;;4.03;1.02;;;25.30;63.90;;;;;;4248521;27;20116;-84
2022/08/02 10:24:49;;;;;;;3.88;1.25;;;25.40;63.60;;;;;;4267189;27;20078;-83
2022/08/02 10:26:50;;;;;;;5.13;1.70;;;25.50;63.50;;;;;;4246241;27;20043;-83
2022/08/02 10:28:52;;;;;;;2.05;0.93;;;25.50;63.80;;;;;;4248147;27;20491;-84
2022/08/02 10:30:55;;;;;;;3.70;1.45;;;25.70;63.80;;;;;;4248348;27;20047;-83
2022/08/02 10:32:57;;;;;;;7.50;1.33;;;25.80;63.20;;;;;;4246865;27;20103;-83
2022/08/02 10:35:30;;;;;;;1.98;1.27;;;25.90;63.40;;;;;;4248399;27;20134;-83
2022/08/02 10:37:35;;;;;;;3.70;1.20;;;25.90;63.40;;;;;;4214846;27;20523;-83
2022/08/02 10:39:43;;;;;;;4.78;1.25;;;25.90;63.60;;;;;;4267962;27;20170;-84
2022/08/02 10:41:49;;;;;;;2.83;1.30;;;25.90;63.90;;;;;;4252471;27;20047;-83
2022/08/02 10:43:50;;;;;;;4.78;1.30;;;26.10;64.10;;;;;;4236549;28;20058;-83
2022/08/02 10:45:51;;;;;;;7.07;1.80;;;26.10;64.10;;;;;;4250033;27;20131;-83